Time;durP1;ratioP1;P1;durP2;ratioP2;P2;SDS_P1;SDS_P2;PMS_P1;PMS_P2;Temp;Humidity;BMP_temperature;BMP_pressure;BME280_temperature;BME280_humidity;BME280_pressure;Samples;Min_cycle;Max_cycle;Signal;HPM_P1;HPM_P2
2022/09/16 00:01:19;;;;;;;;;;;13.10;99.90;;;;;;5077150;28;19955;-76
2022/09/16 00:03:45;;;;;;;;;;;13.10;99.90;;;;;;5078701;28;19908;-76
2022/09/16 00:06:27;;;;;;;;;;;13.10;99.90;;;;;;5078371;28;20361;-76
2022/09/16 00:08:53;;;;;;;;;;;13.00;99.90;;;;;;5074333;28;19913;-77
2022/09/16 00:11:19;;;;;;;;;;;13.00;99.90;;;;;;5075271;28;19999;-76
2022/09/16 00:13:45;;;;;;;;;;;13.00;99.90;;;;;;5075515;28;20007;-75
2022/09/16 00:16:15;;;;;;;;;;;12.90;99.90;;;;;;5074955;28;19954;-75
2022/09/16 00:18:40;;;;;;;;;;;12.90;99.90;;;;;;5075052;28;19998;-75
2022/09/16 00:21:07;;;;;;;;;;;12.90;99.90;;;;;;5074913;28;19940;-74
2022/09/16 00:23:33;;;;;;;;;;;12.90;99.90;;;;;;5075102;28;20285;-75
2022/09/16 00:25:58;;;;;;;;;;;12.90;99.90;;;;;;5074309;28;19908;-74
2022/09/16 00:28:24;;;;;;;;;;;12.80;99.90;;;;;;5075351;28;19909;-74
2022/09/16 00:30:50;;;;;;;;;;;12.80;99.90;;;;;;5075277;28;19909;-75
2022/09/16 00:33:16;;;;;;;;;;;12.80;99.90;;;;;;5074524;28;19908;-74
2022/09/16 00:35:41;;;;;;;;;;;12.90;99.90;;;;;;5074885;28;19913;-75
2022/09/16 00:38:07;;;;;;;;;;;12.90;99.90;;;;;;5074215;28;19953;-75
2022/09/16 00:40:33;;;;;;;;;;;12.90;99.90;;;;;;5075082;28;19915;-75
2022/09/16 00:42:59;;;;;;;;;;;12.90;99.90;;;;;;5074201;28;19924;-74
2022/09/16 00:45:27;;;;;;;;;;;12.90;99.90;;;;;;5074952;28;19920;-74
2022/09/16 00:47:55;;;;;;;;;;;12.80;99.90;;;;;;5075255;28;20270;-75
2022/09/16 00:50:35;;;;;;;;;;;12.80;99.90;;;;;;5074656;28;19909;-75
2022/09/16 00:53:01;;;;;;;;;;;12.80;99.90;;;;;;5074163;28;19913;-75
2022/09/16 00:55:28;;;;;;;;;;;12.80;99.90;;;;;;5074787;28;19920;-74
2022/09/16 00:57:56;;;;;;;;;;;12.80;99.90;;;;;;5074487;28;19912;-75
2022/09/16 01:00:22;;;;;;;;;;;12.80;99.90;;;;;;5074153;28;19912;-75
2022/09/16 01:02:48;;;;;;;;;;;12.80;99.90;;;;;;5074503;28;20007;-75
2022/09/16 01:05:16;;;;;;;;;;;12.70;99.90;;;;;;5073783;28;19962;-74
2022/09/16 01:07:46;;;;;;;;;;;12.80;99.90;;;;;;5074399;28;19944;-75
2022/09/16 01:10:16;;;;;;;;;;;12.70;99.90;;;;;;5073845;28;19908;-75
2022/09/16 01:12:43;;;;;;;;;;;12.60;99.90;;;;;;5074388;28;19939;-75
2022/09/16 01:15:09;;;;;;;;;;;12.60;99.90;;;;;;5073631;28;19912;-75
2022/09/16 01:17:44;;;;;;;;;;;12.60;99.90;;;;;;5074325;28;20325;-74
2022/09/16 01:20:15;;;;;;;;;;;12.50;99.90;;;;;;5073255;28;19943;-74
2022/09/16 01:22:45;;;;;;;;;;;12.50;99.90;;;;;;5074543;28;19995;-75
2022/09/16 01:25:10;;;;;;;;;;;12.40;99.90;;;;;;5071910;28;20324;-75
2022/09/16 01:27:56;;;;;;;;;;;12.40;99.90;;;;;;5073675;28;19912;-74
2022/09/16 01:30:28;;;;;;;;;;;12.30;99.90;;;;;;5074010;28;19962;-75
2022/09/16 01:33:05;;;;;;;;;;;12.20;99.90;;;;;;5072391;28;19916;-74
2022/09/16 01:35:50;;;;;;;;;;;12.10;99.90;;;;;;5073673;28;19913;-74
2022/09/16 01:38:25;;;;;;;;;;;12.10;99.90;;;;;;5073074;28;19908;-74
2022/09/16 01:41:17;;;;;;;;;;;12.10;99.90;;;;;;5072359;28;19912;-74
2022/09/16 01:43:46;;;;;;;;;;;12.00;99.90;;;;;;5073615;28;20492;-73
2022/09/16 01:46:15;;;;;;;;;;;12.00;99.90;;;;;;5073222;28;19909;-74
2022/09/16 01:48:50;;;;;;;;;;;12.00;99.90;;;;;;5073456;28;19908;-74
2022/09/16 01:51:22;;;;;;;;;;;11.90;99.90;;;;;;5072542;28;19923;-74
2022/09/16 01:53:48;;;;;;;;;;;11.90;99.90;;;;;;5073635;28;19912;-74
2022/09/16 01:56:16;;;;;;;;;;;11.80;99.90;;;;;;5071496;28;19935;-74
2022/09/16 01:58:55;;;;;;;;;;;11.80;99.90;;;;;;5073703;28;19908;-74
2022/09/16 02:01:24;;;;;;;;;;;11.70;99.90;;;;;;5073282;28;19912;-75
2022/09/16 02:03:54;;;;;;;;;;;11.60;99.90;;;;;;5073425;28;19908;-76
2022/09/16 02:06:21;;;;;;;;;;;11.60;99.90;;;;;;5072562;28;19952;-74
2022/09/16 02:08:55;;;;;;;;;;;11.50;99.90;;;;;;5073350;28;19909;-76
2022/09/16 02:11:22;;;;;;;;;;;11.50;99.90;;;;;;5072674;28;19912;-75
2022/09/16 02:13:50;;;;;;;;;;;11.50;99.90;;;;;;5073136;28;19912;-74
2022/09/16 02:16:19;;;;;;;;;;;11.40;99.90;;;;;;5072614;28;19915;-74
2022/09/16 02:18:48;;;;;;;;;;;11.40;99.90;;;;;;5072951;28;19915;-75
2022/09/16 02:21:14;;;;;;;;;;;11.40;99.90;;;;;;5071401;28;19919;-75
2022/09/16 02:23:44;;;;;;;;;;;11.30;99.90;;;;;;5073032;28;19915;-74
2022/09/16 02:26:12;;;;;;;;;;;11.30;99.90;;;;;;5072156;28;19909;-74
2022/09/16 02:28:40;;;;;;;;;;;11.30;99.90;;;;;;5071453;28;19908;-74
2022/09/16 02:31:06;;;;;;;;;;;11.30;99.90;;;;;;5071908;28;19908;-74
2022/09/16 02:33:38;;;;;;;;;;;11.30;99.90;;;;;;5072915;28;19917;-74
2022/09/16 02:36:05;;;;;;;;;;;11.20;99.90;;;;;;5072816;28;20365;-74
2022/09/16 02:38:35;;;;;;;;;;;11.20;99.90;;;;;;5072947;28;19909;-74
2022/09/16 02:41:01;;;;;;;;;;;11.20;99.90;;;;;;5073029;28;19909;-74
2022/09/16 02:43:27;;;;;;;;;;;11.20;99.90;;;;;;5072078;28;19931;-75
2022/09/16 02:46:05;;;;;;;;;;;11.20;99.90;;;;;;5073029;28;19920;-74
2022/09/16 02:48:30;;;;;;;;;;;11.10;99.90;;;;;;5071431;28;19908;-74
2022/09/16 02:51:02;;;;;;;;;;;11.10;99.90;;;;;;5072684;28;20258;-74
2022/09/16 02:53:31;;;;;;;;;;;11.00;99.90;;;;;;5072272;28;19938;-74
2022/09/16 02:56:02;;;;;;;;;;;11.00;99.90;;;;;;5072403;28;19912;-75
2022/09/16 02:58:28;;;;;;;;;;;11.00;99.90;;;;;;5071805;28;19962;-74
2022/09/16 03:00:54;;;;;;;;;;;11.00;99.90;;;;;;5072881;28;19916;-74
2022/09/16 03:03:20;;;;;;;;;;;11.00;99.90;;;;;;5071856;28;20035;-74
2022/09/16 03:05:58;;;;;;;;;;;10.90;99.90;;;;;;5072713;28;19947;-74
2022/09/16 03:08:24;;;;;;;;;;;10.90;99.90;;;;;;5070345;28;19912;-74
2022/09/16 03:10:51;;;;;;;;;;;10.90;99.90;;;;;;5072885;28;19951;-74
2022/09/16 03:13:24;;;;;;;;;;;10.80;99.90;;;;;;5070431;28;19919;-74
2022/09/16 03:16:10;;;;;;;;;;;10.80;99.90;;;;;;5072721;28;19912;-75
2022/09/16 03:18:42;;;;;;;;;;;10.80;99.90;;;;;;5068099;28;20003;-75
2022/09/16 03:21:10;;;;;;;;;;;10.80;99.90;;;;;;5072168;28;19954;-74
2022/09/16 03:23:46;;;;;;;;;;;10.70;99.90;;;;;;5071994;28;19920;-75
2022/09/16 03:26:30;;;;;;;;;;;10.70;99.90;;;;;;5072128;28;20376;-74
2022/09/16 03:29:07;;;;;;;;;;;10.70;99.90;;;;;;5072309;28;20421;-74
2022/09/16 03:31:39;;;;;;;;;;;10.60;99.90;;;;;;5071907;28;19912;-74
2022/09/16 03:34:07;;;;;;;;;;;10.60;99.90;;;;;;5072742;28;20277;-74
2022/09/16 03:36:40;;;;;;;;;;;10.60;99.90;;;;;;5072325;28;20379;-75
2022/09/16 03:39:06;;;;;;;;;;;10.60;99.90;;;;;;5073925;28;19916;-74
2022/09/16 03:41:32;;;;;;;;;;;10.60;99.90;;;;;;5073075;28;19908;-74
2022/09/16 03:43:59;;;;;;;;;;;10.60;99.90;;;;;;5076639;28;19909;-74
2022/09/16 03:46:27;;;;;;;;;;;10.60;99.90;;;;;;5076962;28;19909;-76
2022/09/16 03:48:53;;;;;;;;;;;10.50;99.90;;;;;;5076903;28;19909;-74
2022/09/16 03:51:19;;;;;;;;;;;10.50;99.90;;;;;;5075709;28;19909;-74
2022/09/16 03:53:44;;;;;;;;;;;10.50;99.90;;;;;;5075884;28;19919;-74
2022/09/16 03:56:10;;;;;;;;;;;10.50;99.90;;;;;;5074185;28;19909;-74
2022/09/16 03:58:35;;;;;;;;;;;10.40;99.90;;;;;;5075463;28;19912;-74
2022/09/16 04:01:02;;;;;;;;;;;10.30;99.90;;;;;;5075702;28;19934;-74
2022/09/16 04:03:27;;;;;;;;;;;10.30;99.90;;;;;;5075096;28;20271;-74
2022/09/16 04:05:53;;;;;;;;;;;10.30;99.90;;;;;;5075743;28;19908;-74
2022/09/16 04:08:19;;;;;;;;;;;10.30;99.90;;;;;;5075180;28;19909;-75
2022/09/16 04:10:54;;;;;;;;;;;10.20;99.90;;;;;;5075602;28;20046;-74
2022/09/16 04:13:19;;;;;;;;;;;10.30;99.90;;;;;;5074906;28;19936;-75
2022/09/16 04:15:45;;;;;;;;;;;10.20;99.90;;;;;;5075677;28;20361;-74
2022/09/16 04:18:10;;;;;;;;;;;10.20;99.90;;;;;;5075318;28;19915;-74
2022/09/16 04:20:36;;;;;;;;;;;10.20;99.90;;;;;;5074701;28;19912;-75
2022/09/16 04:23:01;;;;;;;;;;;10.10;99.90;;;;;;5075446;28;19909;-74
2022/09/16 04:25:27;;;;;;;;;;;10.20;99.90;;;;;;5074745;28;19908;-74
2022/09/16 04:27:53;;;;;;;;;;;10.10;99.90;;;;;;5075350;28;19909;-73
2022/09/16 04:30:19;;;;;;;;;;;10.10;99.90;;;;;;5074152;28;19908;-74
2022/09/16 04:32:44;;;;;;;;;;;10.00;99.90;;;;;;5073858;28;19912;-74
2022/09/16 04:35:10;;;;;;;;;;;10.00;99.90;;;;;;5073909;28;19974;-75
2022/09/16 04:37:36;;;;;;;;;;;10.00;99.90;;;;;;5074310;28;19998;-74
2022/09/16 04:40:01;;;;;;;;;;;10.00;99.90;;;;;;5075034;28;19948;-74
2022/09/16 04:42:27;;;;;;;;;;;10.00;99.90;;;;;;5074316;28;19915;-74
2022/09/16 04:44:53;;;;;;;;;;;9.90;99.90;;;;;;5074781;28;19921;-75
2022/09/16 04:47:18;;;;;;;;;;;9.90;99.90;;;;;;5074124;28;19932;-74
2022/09/16 04:49:46;;;;;;;;;;;9.90;99.90;;;;;;5074197;28;20636;-75
2022/09/16 04:52:11;;;;;;;;;;;9.80;99.90;;;;;;5074829;28;20285;-75
2022/09/16 04:54:37;;;;;;;;;;;9.90;99.90;;;;;;5073477;28;19913;-75
2022/09/16 04:57:02;;;;;;;;;;;9.90;99.90;;;;;;5075233;28;19909;-75
2022/09/16 04:59:28;;;;;;;;;;;9.90;99.90;;;;;;5056133;28;20345;-75
2022/09/16 05:01:53;;;;;;;;;;;9.90;99.90;;;;;;5074680;28;19912;-75
2022/09/16 05:04:19;;;;;;;;;;;9.80;99.90;;;;;;5074118;28;19991;-75
2022/09/16 05:06:45;;;;;;;;;;;9.90;99.90;;;;;;5074600;28;19908;-75
2022/09/16 05:09:11;;;;;;;;;;;9.80;99.90;;;;;;5074331;28;19947;-75
2022/09/16 05:11:38;;;;;;;;;;;9.80;99.90;;;;;;5073809;28;19916;-75
2022/09/16 05:14:04;;;;;;;;;;;9.80;99.90;;;;;;5074286;28;19951;-75
2022/09/16 05:16:31;;;;;;;;;;;9.80;99.90;;;;;;5074231;28;19908;-75
2022/09/16 05:18:58;;;;;;;;;;;9.70;99.90;;;;;;5074692;28;19908;-75
2022/09/16 05:21:25;;;;;;;;;;;9.70;99.90;;;;;;5073683;28;20402;-75
2022/09/16 05:23:51;;;;;;;;;;;9.70;99.90;;;;;;5074043;28;19995;-75
2022/09/16 05:26:21;;;;;;;;;;;9.70;99.90;;;;;;5073793;28;19951;-75
2022/09/16 05:28:47;;;;;;;;;;;9.70;99.90;;;;;;5073930;28;19916;-75
2022/09/16 05:31:15;;;;;;;;;;;9.70;99.90;;;;;;5073593;28;19908;-75
2022/09/16 05:33:41;;;;;;;;;;;9.70;99.90;;;;;;5073532;28;19917;-76
2022/09/16 05:36:08;;;;;;;;;;;9.70;99.90;;;;;;5073970;28;20264;-75
2022/09/16 05:38:34;;;;;;;;;;;9.60;99.90;;;;;;5071647;28;19958;-75
2022/09/16 05:41:03;;;;;;;;;;;9.60;99.90;;;;;;5073763;28;19913;-75
2022/09/16 05:43:29;;;;;;;;;;;9.50;99.90;;;;;;5073128;28;19916;-74
2022/09/16 05:45:55;;;;;;;;;;;9.50;99.90;;;;;;5073374;28;19926;-74
2022/09/16 05:48:22;;;;;;;;;;;9.50;99.90;;;;;;5072995;28;19935;-74
2022/09/16 05:50:55;;;;;;;;;;;9.50;99.90;;;;;;5073566;28;19909;-74
2022/09/16 05:53:21;;;;;;;;;;;9.40;99.90;;;;;;5072696;28;19919;-74
2022/09/16 05:56:00;;;;;;;;;;;9.40;99.90;;;;;;5073420;28;19912;-74
2022/09/16 05:58:26;;;;;;;;;;;9.40;99.90;;;;;;5072875;28;19908;-74
2022/09/16 06:01:02;;;;;;;;;;;9.40;99.90;;;;;;5073216;28;19912;-74
2022/09/16 06:03:28;;;;;;;;;;;9.40;99.90;;;;;;5072780;28;19909;-75
2022/09/16 06:06:00;;;;;;;;;;;9.40;99.90;;;;;;5072621;28;19955;-75
2022/09/16 06:08:27;;;;;;;;;;;9.40;99.90;;;;;;5072546;28;20308;-74
2022/09/16 06:10:53;;;;;;;;;;;9.40;99.90;;;;;;5073066;28;19940;-74
2022/09/16 06:13:18;;;;;;;;;;;9.50;99.90;;;;;;5072908;28;20353;-75
2022/09/16 06:15:52;;;;;;;;;;;9.40;99.90;;;;;;5072957;28;19916;-75
2022/09/16 06:18:18;;;;;;;;;;;9.40;99.90;;;;;;5073248;28;19959;-74
2022/09/16 06:20:44;;;;;;;;;;;9.30;99.90;;;;;;5072763;28;19956;-74
2022/09/16 06:23:10;;;;;;;;;;;9.30;99.90;;;;;;5072987;28;20331;-74
2022/09/16 06:25:35;;;;;;;;;;;9.30;99.90;;;;;;5070911;28;19912;-74
2022/09/16 06:28:02;;;;;;;;;;;9.40;99.90;;;;;;5072606;28;20002;-75
2022/09/16 06:30:28;;;;;;;;;;;9.50;99.90;;;;;;5072404;28;19909;-74
2022/09/16 06:32:53;;;;;;;;;;;9.50;99.90;;;;;;5072553;28;20380;-75
2022/09/16 06:35:19;;;;;;;;;;;9.60;99.90;;;;;;5072866;28;19913;-74
2022/09/16 06:37:44;;;;;;;;;;;9.70;99.90;;;;;;5072344;28;20407;-75
2022/09/16 06:40:10;;;;;;;;;;;9.80;99.90;;;;;;5072815;28;20431;-75
2022/09/16 06:42:36;;;;;;;;;;;9.90;99.90;;;;;;5072227;28;19912;-76
2022/09/16 06:45:03;;;;;;;;;;;10.10;99.90;;;;;;5071926;28;19920;-74
2022/09/16 06:47:31;;;;;;;;;;;10.20;99.90;;;;;;5082860;28;19912;-74
2022/09/16 06:49:57;;;;;;;;;;;10.30;99.90;;;;;;5082328;28;19935;-74
2022/09/16 06:52:23;;;;;;;;;;;10.40;99.90;;;;;;5092306;28;19913;-74
2022/09/16 06:54:49;;;;;;;;;;;10.50;99.90;;;;;;5092987;28;20376;-74
2022/09/16 06:57:15;;;;;;;;;;;10.60;99.90;;;;;;5092704;28;19915;-74
2022/09/16 06:59:41;;;;;;;;;;;10.70;99.90;;;;;;5090608;28;19998;-74
2022/09/16 07:02:07;;;;;;;;;;;10.90;99.90;;;;;;5091437;28;19989;-74
2022/09/16 07:04:34;;;;;;;;;;;10.90;99.90;;;;;;5092264;28;20246;-74
2022/09/16 07:07:00;;;;;;;;;;;11.00;99.90;;;;;;5091762;28;19995;-74
2022/09/16 07:09:26;;;;;;;;;;;11.10;99.90;;;;;;5089460;28;20002;-74
2022/09/16 07:11:51;;;;;;;;;;;11.20;99.90;;;;;;5081834;28;19916;-75
2022/09/16 07:14:17;;;;;;;;;;;11.30;99.90;;;;;;5083687;28;19962;-74
2022/09/16 07:16:42;;;;;;;;;;;11.40;99.90;;;;;;5072434;28;20090;-74
2022/09/16 07:19:08;;;;;;;;;;;11.50;99.90;;;;;;5076169;28;19954;-75
2022/09/16 07:21:34;;;;;;;;;;;11.50;99.90;;;;;;5074587;28;19999;-74
2022/09/16 07:24:00;;;;;;;;;;;11.60;99.90;;;;;;5076321;28;19909;-75
2022/09/16 07:26:27;;;;;;;;;;;11.70;99.90;;;;;;5077303;28;19948;-75
2022/09/16 07:28:53;;;;;;;;;;;11.80;99.90;;;;;;5085103;28;19912;-75
2022/09/16 07:31:20;;;;;;;;;;;11.80;99.90;;;;;;5087806;28;20242;-75
2022/09/16 07:33:47;;;;;;;;;;;11.90;99.90;;;;;;5096062;28;19931;-75
2022/09/16 07:36:14;;;;;;;;;;;11.90;99.90;;;;;;5096687;28;19912;-75
2022/09/16 07:38:40;;;;;;;;;;;12.00;99.90;;;;;;5095370;28;19908;-74
2022/09/16 07:41:10;;;;;;;;;;;12.10;99.90;;;;;;5096413;28;20416;-74
2022/09/16 07:43:36;;;;;;;;;;;12.20;99.90;;;;;;5095787;28;20404;-74
2022/09/16 07:46:01;;;;;;;;;;;12.30;99.90;;;;;;5095921;28;20054;-74
2022/09/16 07:48:30;;;;;;;;;;;12.30;99.90;;;;;;5095708;28;19915;-74
2022/09/16 07:51:06;;;;;;;;;;;12.40;99.90;;;;;;5096152;28;19934;-75
2022/09/16 07:53:32;;;;;;;;;;;12.30;99.90;;;;;;5095479;28;19912;-74
2022/09/16 07:56:03;;;;;;;;;;;12.30;99.90;;;;;;5095852;28;19912;-75
2022/09/16 07:58:28;;;;;;;;;;;12.40;99.90;;;;;;5094798;28;20009;-73
2022/09/16 08:00:54;;;;;;;;;;;12.40;99.90;;;;;;5095455;28;19912;-75
2022/09/16 08:03:20;;;;;;;;;;;12.50;99.90;;;;;;5095955;28;19908;-75
2022/09/16 08:05:45;;;;;;;;;;;12.60;99.90;;;;;;5095344;28;19920;-73
2022/09/16 08:08:11;;;;;;;;;;;12.70;99.90;;;;;;5095580;28;20353;-74
2022/09/16 08:10:36;;;;;;;;;;;12.80;99.90;;;;;;5094894;28;19908;-74
2022/09/16 08:13:03;;;;;;;;;;;12.80;99.90;;;;;;5095658;28;19919;-74
2022/09/16 08:15:28;;;;;;;;;;;12.90;99.90;;;;;;5095145;28;19912;-74
2022/09/16 08:17:54;;;;;;;;;;;13.00;99.90;;;;;;5095560;28;19958;-73
2022/09/16 08:20:19;;;;;;;;;;;13.00;99.90;;;;;;5095318;28;20315;-73
2022/09/16 08:22:45;;;;;;;;;;;13.10;99.90;;;;;;5094734;28;20090;-73
2022/09/16 08:25:11;;;;;;;;;;;13.10;99.90;;;;;;5095460;28;19912;-73
2022/09/16 08:27:36;;;;;;;;;;;13.10;99.90;;;;;;5094662;28;19915;-74
2022/09/16 08:30:02;;;;;;;;;;;13.20;99.90;;;;;;5094401;28;19961;-74
2022/09/16 08:32:28;;;;;;;;;;;13.30;99.90;;;;;;5094913;28;19916;-73
2022/09/16 08:34:54;;;;;;;;;;;13.20;99.90;;;;;;5085395;28;20041;-74
2022/09/16 08:37:19;;;;;;;;;;;13.30;99.90;;;;;;5085510;28;19908;-73
2022/09/16 08:39:48;;;;;;;;;;;13.40;99.90;;;;;;5089822;28;19912;-73
2022/09/16 08:42:30;;;;;;;;;;;13.40;99.90;;;;;;5084948;28;19908;-73
2022/09/16 08:45:01;;;;;;;;;;;13.50;99.90;;;;;;5087301;28;19920;-73
2022/09/16 08:47:33;;;;;;;;;;;13.50;99.90;;;;;;5092966;28;20311;-73
2022/09/16 08:50:01;;;;;;;;;;;13.50;99.90;;;;;;5084779;28;19909;-74
2022/09/16 08:52:26;;;;;;;;;;;13.60;99.90;;;;;;5082591;28;19935;-74
2022/09/16 08:54:55;;;;;;;;;;;13.70;99.90;;;;;;5076364;28;20361;-73
2022/09/16 08:57:22;;;;;;;;;;;13.70;99.90;;;;;;5079762;28;19912;-73
2022/09/16 08:59:56;;;;;;;;;;;13.70;99.90;;;;;;5073777;28;20330;-73
2022/09/16 09:02:22;;;;;;;;;;;13.80;99.90;;;;;;5074760;28;19909;-73
2022/09/16 09:04:47;;;;;;;;;;;13.80;99.90;;;;;;5073844;28;19931;-73
2022/09/16 09:07:22;;;;;;;;;;;13.90;99.90;;;;;;5074448;28;19967;-73
2022/09/16 09:09:56;;;;;;;;;;;14.00;99.90;;;;;;5074046;28;19915;-73
2022/09/16 09:12:39;;;;;;;;;;;14.10;99.90;;;;;;5073790;28;20332;-74
2022/09/16 09:15:10;;;;;;;;;;;14.00;99.90;;;;;;5074255;28;20002;-73
2022/09/16 09:17:44;;;;;;;;;;;14.00;99.90;;;;;;5073446;28;20380;-72
2022/09/16 09:20:28;;;;;;;;;;;14.00;99.90;;;;;;5073983;28;19915;-73
2022/09/16 09:23:03;;;;;;;;;;;14.10;99.90;;;;;;5073631;28;19912;-73
2022/09/16 09:25:38;;;;;;;;;;;14.10;99.90;;;;;;5074143;28;19909;-74
2022/09/16 09:28:03;;;;;;;;;;;14.10;99.90;;;;;;5073887;28;19909;-73
2022/09/16 09:30:30;;;;;;;;;;;14.20;99.90;;;;;;5073900;28;19970;-74
2022/09/16 09:33:05;;;;;;;;;;;14.20;99.90;;;;;;5073172;28;19959;-73
2022/09/16 09:35:40;;;;;;;;;;;14.30;99.90;;;;;;5072656;28;20400;-73
2022/09/16 09:38:05;;;;;;;;;;;14.30;99.90;;;;;;5073743;28;20396;-73
2022/09/16 09:40:36;;;;;;;;;;;14.40;99.90;;;;;;5073465;28;19912;-73
2022/09/16 09:43:07;;;;;;;;;;;14.40;99.90;;;;;;5072272;28;20315;-74
2022/09/16 09:45:35;;;;;;;;;;;14.50;99.90;;;;;;5073456;28;19920;-73
2022/09/16 09:48:04;;;;;;;;;;;14.50;99.90;;;;;;5073182;28;19909;-74
2022/09/16 09:50:41;;;;;;;;;;;14.50;99.90;;;;;;5073533;28;19909;-74
2022/09/16 09:53:09;;;;;;;;;;;14.50;99.90;;;;;;5073406;28;20333;-74
2022/09/16 09:55:35;;;;;;;;;;;14.60;99.90;;;;;;5073094;28;19931;-74
2022/09/16 09:58:04;;;;;;;;;;;14.60;99.90;;;;;;5073460;28;19909;-73
2022/09/16 10:00:30;;;;;;;;;;;14.60;99.90;;;;;;5073417;28;19908;-74
2022/09/16 10:03:24;;;;;;;;;;;14.70;99.90;;;;;;5072737;28;19904;-73
2022/09/16 10:05:50;;;;;;;;;;;14.70;99.90;;;;;;5071702;28;19909;-73
2022/09/16 10:08:25;;;;;;;;;;;14.80;99.90;;;;;;5073342;28;19908;-74
2022/09/16 10:10:55;;;;;;;;;;;14.90;99.90;;;;;;5072735;28;19908;-74
2022/09/16 10:13:21;;;;;;;;;;;15.00;99.90;;;;;;5073078;28;19912;-74
2022/09/16 10:15:48;;;;;;;;;;;14.90;99.90;;;;;;5072641;28;19913;-73
2022/09/16 10:18:21;;;;;;;;;;;14.80;99.90;;;;;;5073072;28;19913;-73
2022/09/16 10:20:54;;;;;;;;;;;14.90;99.90;;;;;;5072283;28;19908;-74
2022/09/16 10:23:22;;;;;;;;;;;15.00;99.90;;;;;;5073012;28;19908;-73
2022/09/16 10:25:47;;;;;;;;;;;15.00;99.90;;;;;;5072498;28;19913;-74
2022/09/16 10:28:25;;;;;;;;;;;15.00;99.90;;;;;;5073114;28;20323;-73
2022/09/16 10:30:52;;;;;;;;;;;15.10;99.90;;;;;;5072396;28;19916;-74
2022/09/16 10:33:29;;;;;;;;;;;15.20;99.90;;;;;;5072874;28;20257;-73
2022/09/16 10:36:00;;;;;;;;;;;15.30;99.90;;;;;;5072180;28;20389;-74
2022/09/16 10:38:33;;;;;;;;;;;15.20;99.90;;;;;;5072949;28;19909;-74
2022/09/16 10:41:06;;;;;;;;;;;15.10;99.90;;;;;;5072269;28;19909;-74
2022/09/16 10:43:31;;;;;;;;;;;14.90;99.90;;;;;;5071636;28;19999;-73
2022/09/16 10:45:57;;;;;;;;;;;14.80;99.90;;;;;;5072481;28;20183;-74
2022/09/16 10:48:27;;;;;;;;;;;14.90;99.90;;;;;;5072659;28;20354;-74
2022/09/16 10:50:57;;;;;;;;;;;15.00;99.90;;;;;;5072365;28;19908;-74
2022/09/16 10:53:27;;;;;;;;;;;15.10;99.90;;;;;;5072345;28;19919;-74
2022/09/16 10:55:57;;;;;;;;;;;15.20;99.90;;;;;;5070812;28;19921;-74
2022/09/16 10:58:22;;;;;;;;;;;15.40;99.90;;;;;;5072740;28;19908;-74
2022/09/16 11:00:48;;;;;;;;;;;15.40;99.90;;;;;;5071768;28;19909;-74
2022/09/16 11:03:16;;;;;;;;;;;15.30;99.90;;;;;;5072578;28;19912;-75
2022/09/16 11:05:54;;;;;;;;;;;15.30;99.90;;;;;;5072396;28;19953;-74
2022/09/16 11:08:22;;;;;;;;;;;15.20;99.90;;;;;;5072679;28;19995;-74
2022/09/16 11:11:06;;;;;;;;;;;15.20;99.90;;;;;;5072044;28;19909;-74
2022/09/16 11:13:38;;;;;;;;;;;15.20;99.90;;;;;;5072329;28;19966;-75
2022/09/16 11:16:09;;;;;;;;;;;15.20;99.90;;;;;;5078607;28;19923;-75
2022/09/16 11:18:43;;;;;;;;;;;15.20;99.90;;;;;;5080496;28;20387;-74
2022/09/16 11:21:21;;;;;;;;;;;15.30;99.90;;;;;;5080409;28;19987;-75
2022/09/16 11:24:09;;;;;;;;;;;15.30;99.90;;;;;;5079929;28;19912;-74
2022/09/16 11:26:35;;;;;;;;;;;15.20;99.90;;;;;;5074447;28;19920;-75
2022/09/16 11:29:09;;;;;;;;;;;15.00;99.90;;;;;;5071788;28;19940;-74
2022/09/16 11:31:41;;;;;;;;;;;15.10;99.90;;;;;;5072299;28;19913;-75
2022/09/16 11:34:12;;;;;;;;;;;15.10;99.90;;;;;;5072028;28;20385;-74
2022/09/16 11:36:43;;;;;;;;;;;15.20;99.90;;;;;;5071220;28;19916;-75
2022/09/16 11:39:30;;;;;;;;;;;15.20;99.90;;;;;;5079135;28;20007;-75
2022/09/16 11:42:05;;;;;;;;;;;15.30;99.90;;;;;;5080159;28;19909;-75
2022/09/16 11:44:49;;;;;;;;;;;15.30;99.90;;;;;;5087903;28;19920;-76
2022/09/16 11:47:26;;;;;;;;;;;15.30;99.90;;;;;;5092242;28;19916;-74
2022/09/16 11:50:03;;;;;;;;;;;15.40;99.90;;;;;;5088920;28;20335;-74
2022/09/16 11:52:47;;;;;;;;;;;15.40;99.90;;;;;;5079429;28;19913;-74
2022/09/16 11:55:25;;;;;;;;;;;15.50;99.90;;;;;;5077185;28;19912;-75
2022/09/16 11:57:59;;;;;;;;;;;15.60;99.90;;;;;;5071578;28;20269;-74
2022/09/16 12:00:24;;;;;;;;;;;15.60;99.90;;;;;;5072018;28;19912;-74
2022/09/16 12:02:53;;;;;;;;;;;15.50;99.90;;;;;;5071571;28;19916;-74
2022/09/16 12:05:19;;;;;;;;;;;15.50;99.90;;;;;;5073677;28;19913;-74
2022/09/16 12:07:52;;;;;;;;;;;15.50;99.90;;;;;;5075159;28;19913;-73
2022/09/16 12:10:21;;;;;;;;;;;15.60;99.90;;;;;;5074319;28;19908;-74
2022/09/16 12:12:51;;;;;;;;;;;15.80;99.90;;;;;;5074860;28;20357;-74
2022/09/16 12:15:19;;;;;;;;;;;15.90;99.90;;;;;;5075229;28;20301;-74
2022/09/16 12:18:08;;;;;;;;;;;16.00;99.90;;;;;;5073562;28;19971;-74
2022/09/16 12:20:37;;;;;;;;;;;16.10;99.90;;;;;;5064178;28;20257;-74
2022/09/16 12:23:15;;;;;;;;;;;16.10;99.90;;;;;;5073325;28;19908;-74
2022/09/16 12:25:44;;;;;;;;;;;16.00;99.90;;;;;;5075373;28;19915;-74
2022/09/16 12:28:27;;;;;;;;;;;15.80;99.90;;;;;;5074931;28;19909;-74
2022/09/16 12:31:07;;;;;;;;;;;15.80;99.90;;;;;;5074962;28;19954;-74
2022/09/16 12:33:35;;;;;;;;;;;15.80;99.90;;;;;;5074886;28;20246;-74
2022/09/16 12:36:04;;;;;;;;;;;15.70;99.90;;;;;;5074294;28;19955;-74
2022/09/16 12:38:30;;;;;;;;;;;15.60;99.90;;;;;;5075001;28;19961;-74
2022/09/16 12:41:14;;;;;;;;;;;15.70;99.90;;;;;;5078287;28;19995;-74
2022/09/16 12:44:03;;;;;;;;;;;15.80;99.90;;;;;;5086394;28;20361;-74
2022/09/16 12:46:36;;;;;;;;;;;15.80;99.90;;;;;;5080788;28;19920;-76
2022/09/16 12:49:16;;;;;;;;;;;15.90;99.90;;;;;;5088622;28;19908;-74
2022/09/16 12:52:08;;;;;;;;;;;16.00;99.90;;;;;;5094609;28;20319;-74
2022/09/16 12:54:37;;;;;;;;;;;16.10;99.90;;;;;;5120089;27;19916;-74
2022/09/16 12:57:03;;;;;;;;;;;16.00;99.90;;;;;;5094531;28;19978;-76
2022/09/16 12:59:44;;;;;;;;;;;16.00;99.90;;;;;;5094948;28;19912;-75
2022/09/16 13:02:14;;;;;;;;;;;15.90;99.90;;;;;;5094203;28;20006;-75
2022/09/16 13:04:43;;;;;;;;;;;16.00;99.90;;;;;;5095158;28;20289;-73
2022/09/16 13:07:18;;;;;;;;;;;16.00;99.90;;;;;;5094387;28;20497;-74
2022/09/16 13:09:46;;;;;;;;;;;15.90;99.90;;;;;;5094600;28;19913;-75
2022/09/16 13:12:25;;;;;;;;;;;15.90;99.90;;;;;;5093669;28;20401;-75
2022/09/16 13:14:55;;;;;;;;;;;15.80;99.90;;;;;;5093587;28;19919;-74
2022/09/16 13:17:37;;;;;;;;;;;15.80;99.90;;;;;;5094506;28;19912;-75
2022/09/16 13:20:16;;;;;;;;;;;15.90;99.90;;;;;;5093793;28;19908;-75
2022/09/16 13:22:46;;;;;;;;;;;16.10;99.90;;;;;;5094544;28;19914;-75
2022/09/16 13:25:33;;;;;;;;;;;16.10;99.90;;;;;;5093630;28;19908;-75
2022/09/16 13:28:02;;;;;;;;;;;16.10;99.90;;;;;;5093858;28;20373;-75
2022/09/16 13:30:37;;;;;;;;;;;16.10;99.90;;;;;;5094025;28;20006;-74
2022/09/16 13:33:20;;;;;;;;;;;16.00;99.90;;;;;;5093539;28;20318;-74
2022/09/16 13:35:48;;;;;;;;;;;15.90;99.90;;;;;;5094466;28;19920;-74
2022/09/16 13:38:13;;;;;;;;;;;16.00;99.90;;;;;;5092430;28;19908;-75
2022/09/16 13:40:40;;;;;;;;;;;16.20;99.90;;;;;;5094086;28;19991;-74
2022/09/16 13:43:08;;;;;;;;;;;16.40;99.90;;;;;;5093134;28;19908;-74
2022/09/16 13:45:34;;;;;;;;;;;16.40;99.90;;;;;;5093761;28;19924;-74
2022/09/16 13:48:12;;;;;;;;;;;16.40;99.90;;;;;;5093435;28;19908;-74
2022/09/16 13:50:40;;;;;;;;;;;16.30;99.90;;;;;;5094028;28;19908;-75
2022/09/16 13:53:10;;;;;;;;;;;16.30;99.90;;;;;;5092963;28;20319;-75
2022/09/16 13:55:36;;;;;;;;;;;16.20;99.90;;;;;;5092299;28;19912;-74
2022/09/16 13:58:15;;;;;;;;;;;16.20;99.90;;;;;;5093478;28;20406;-74
2022/09/16 14:00:44;;;;;;;;;;;16.10;99.90;;;;;;5093859;28;20007;-75
2022/09/16 14:03:25;;;;;;;;;;;16.10;99.90;;;;;;5092974;28;19908;-74
2022/09/16 14:05:59;;;;;;;;;;;16.10;99.90;;;;;;5093747;28;19909;-75
2022/09/16 14:08:35;;;;;;;;;;;16.00;99.90;;;;;;5093538;28;20326;-74
2022/09/16 14:11:01;;;;;;;;;;;16.00;99.90;;;;;;5092991;28;19940;-74
2022/09/16 14:13:39;;;;;;;;;;;16.00;99.90;;;;;;5093330;28;19966;-75
2022/09/16 14:16:11;;;;;;;;;;;16.20;99.90;;;;;;5092627;28;20371;-75
2022/09/16 14:18:40;;;;;;;;;;;16.30;99.90;;;;;;5093701;28;20007;-75
2022/09/16 14:21:15;;;;;;;;;;;16.40;99.90;;;;;;5092552;28;20003;-76
2022/09/16 14:23:41;;;;;;;;;;;16.40;99.90;;;;;;5093430;28;20372;-74
2022/09/16 14:26:20;;;;;;;;;;;16.30;99.90;;;;;;5091794;28;19953;-74
2022/09/16 14:28:46;;;;;;;;;;;16.20;99.90;;;;;;5092644;28;20377;-75
2022/09/16 14:31:19;;;;;;;;;;;16.20;99.90;;;;;;5075149;28;19908;-74
2022/09/16 14:33:52;;;;;;;;;;;16.30;99.90;;;;;;5082838;28;19920;-74